Terminal Aerodrome Forecast
Issued by NWS Nashville, TN

Home | Current Version | Previous Version | Text Only | Print | Product List | Glossary On
Versions: 1 2 3 4 5 6 7 8 9 10 11 12 13 14 15 16 17 18 19 20 21 22 23 24 25 26 27 28 29 30 31 32 33 34
390
FTUS44 KOHX 251303 AAA
TAFBNA
TAF AMD
KBNA 251303Z 2513/2612 29007KT P6SM SCT017 BKN030 OVC180
     FM251400 30008KT P6SM SCT030 OVC180
     FM251800 33004KT P6SM BKN220=

USA.gov is the U.S. government's official web portal to all federal, state and local government web resources and services.